sensor_id;sensor_type;location;lat;lon;timestamp;P1;P2;P0
65556;PMS3003;52200;53.490;14.376;2023-12-07T00:01:52;150.50;112.50;56.50
65556;PMS3003;52200;53.490;14.376;2023-12-07T00:04:18;153.25;112.25;54.50
65556;PMS3003;52200;53.490;14.376;2023-12-07T00:06:43;167.25;112.00;56.50
65556;PMS3003;52200;53.490;14.376;2023-12-07T00:09:08;148.00;116.75;55.25
65556;PMS3003;52200;53.490;14.376;2023-12-07T00:11:34;132.00;115.25;54.00
65556;PMS3003;52200;53.490;14.376;2023-12-07T00:13:59;158.25;113.00;57.00
65556;PMS3003;52200;53.490;14.376;2023-12-07T00:16:24;143.00;112.25;54.25
65556;PMS3003;52200;53.490;14.376;2023-12-07T00:18:50;138.75;109.00;54.00
65556;PMS3003;52200;53.490;14.376;2023-12-07T00:21:15;145.00;107.75;53.75
65556;PMS3003;52200;53.490;14.376;2023-12-07T00:23:40;135.50;103.00;54.50
65556;PMS3003;52200;53.490;14.376;2023-12-07T00:26:06;136.00;108.00;53.00
65556;PMS3003;52200;53.490;14.376;2023-12-07T00:28:31;144.75;108.00;56.25
65556;PMS3003;52200;53.490;14.376;2023-12-07T00:30:57;150.00;109.50;54.25
65556;PMS3003;52200;53.490;14.376;2023-12-07T00:33:22;141.50;105.75;53.75
65556;PMS3003;52200;53.490;14.376;2023-12-07T00:35:48;133.00;101.25;54.00
65556;PMS3003;52200;53.490;14.376;2023-12-07T00:38:13;155.50;112.50;55.75
65556;PMS3003;52200;53.490;14.376;2023-12-07T00:40:39;144.25;110.75;55.00
65556;PMS3003;52200;53.490;14.376;2023-12-07T00:43:05;140.00;113.00;54.50
65556;PMS3003;52200;53.490;14.376;2023-12-07T00:45:31;143.00;113.40;55.00
65556;PMS3003;52200;53.490;14.376;2023-12-07T00:47:56;133.50;110.75;54.00
65556;PMS3003;52200;53.490;14.376;2023-12-07T00:50:21;140.50;106.25;55.75
65556;PMS3003;52200;53.490;14.376;2023-12-07T00:52:47;135.50;111.00;52.00
65556;PMS3003;52200;53.490;14.376;2023-12-07T00:55:12;145.50;102.25;54.75
65556;PMS3003;52200;53.490;14.376;2023-12-07T00:57:38;135.75;108.00;56.00
65556;PMS3003;52200;53.490;14.376;2023-12-07T01:00:03;146.50;112.50;55.25
65556;PMS3003;52200;53.490;14.376;2023-12-07T01:02:30;134.20;106.40;56.20
65556;PMS3003;52200;53.490;14.376;2023-12-07T01:04:56;145.50;118.25;55.25
65556;PMS3003;52200;53.490;14.376;2023-12-07T01:07:21;154.25;111.00;57.50
65556;PMS3003;52200;53.490;14.376;2023-12-07T01:09:46;165.75;114.00;54.25
65556;PMS3003;52200;53.490;14.376;2023-12-07T01:12:12;136.50;114.75;56.75
65556;PMS3003;52200;53.490;14.376;2023-12-07T01:14:37;164.75;111.75;57.25
65556;PMS3003;52200;53.490;14.376;2023-12-07T01:17:03;159.25;114.50;56.00
65556;PMS3003;52200;53.490;14.376;2023-12-07T01:19:29;160.20;120.20;58.80
65556;PMS3003;52200;53.490;14.376;2023-12-07T01:21:54;138.00;106.50;54.00
65556;PMS3003;52200;53.490;14.376;2023-12-07T01:24:19;144.25;116.50;55.25
65556;PMS3003;52200;53.490;14.376;2023-12-07T01:26:45;164.50;112.00;56.50
65556;PMS3003;52200;53.490;14.376;2023-12-07T01:29:10;143.25;116.25;55.25
65556;PMS3003;52200;53.490;14.376;2023-12-07T01:31:35;157.25;114.75;57.50
65556;PMS3003;52200;53.490;14.376;2023-12-07T01:34:01;147.50;113.00;56.25
65556;PMS3003;52200;53.490;14.376;2023-12-07T01:36:26;155.50;112.00;56.00
65556;PMS3003;52200;53.490;14.376;2023-12-07T01:38:51;157.75;109.25;54.00
65556;PMS3003;52200;53.490;14.376;2023-12-07T01:41:17;139.75;112.25;55.25
65556;PMS3003;52200;53.490;14.376;2023-12-07T01:43:46;156.00;120.20;57.20
65556;PMS3003;52200;53.490;14.376;2023-12-07T01:46:12;142.40;117.60;56.80
65556;PMS3003;52200;53.490;14.376;2023-12-07T01:48:38;155.00;116.60;57.00
65556;PMS3003;52200;53.490;14.376;2023-12-07T01:51:04;139.75;111.00;54.50
65556;PMS3003;52200;53.490;14.376;2023-12-07T01:53:31;151.60;111.00;56.60
65556;PMS3003;52200;53.490;14.376;2023-12-07T01:55:56;150.00;117.00;57.25
65556;PMS3003;52200;53.490;14.376;2023-12-07T01:58:22;145.60;112.60;54.60
65556;PMS3003;52200;53.490;14.376;2023-12-07T02:00:48;157.75;124.00;58.00
65556;PMS3003;52200;53.490;14.376;2023-12-07T02:03:14;141.60;119.80;57.40
65556;PMS3003;52200;53.490;14.376;2023-12-07T02:05:42;148.40;117.80;55.20
65556;PMS3003;52200;53.490;14.376;2023-12-07T02:08:10;147.20;113.00;56.00
65556;PMS3003;52200;53.490;14.376;2023-12-07T02:10:36;148.75;115.50;60.50
65556;PMS3003;52200;53.490;14.376;2023-12-07T02:13:01;147.75;114.75;56.75
65556;PMS3003;52200;53.490;14.376;2023-12-07T02:15:28;146.80;115.20;56.20
65556;PMS3003;52200;53.490;14.376;2023-12-07T02:20:53;154.40;118.60;56.40
65556;PMS3003;52200;53.490;14.376;2023-12-07T02:23:22;154.00;116.00;59.40
65556;PMS3003;52200;53.490;14.376;2023-12-07T02:25:53;149.80;114.80;56.60
65556;PMS3003;52200;53.490;14.376;2023-12-07T02:28:19;158.60;118.60;55.60
65556;PMS3003;52200;53.490;14.376;2023-12-07T02:30:45;170.80;117.60;57.80
65556;PMS3003;52200;53.490;14.376;2023-12-07T02:33:10;147.00;110.50;53.75
65556;PMS3003;52200;53.490;14.376;2023-12-07T02:35:37;156.20;122.00;60.80
65556;PMS3003;52200;53.490;14.376;2023-12-07T02:38:03;152.20;109.80;53.80
65556;PMS3003;52200;53.490;14.376;2023-12-07T02:40:31;153.00;115.00;57.40
65556;PMS3003;52200;53.490;14.376;2023-12-07T02:42:57;153.40;120.00;57.80
65556;PMS3003;52200;53.490;14.376;2023-12-07T02:45:24;155.20;114.80;56.80
65556;PMS3003;52200;53.490;14.376;2023-12-07T02:47:51;150.60;110.00;53.20
65556;PMS3003;52200;53.490;14.376;2023-12-07T02:50:16;158.50;110.25;55.75
65556;PMS3003;52200;53.490;14.376;2023-12-07T02:52:42;162.50;117.50;57.75
65556;PMS3003;52200;53.490;14.376;2023-12-07T02:55:07;164.75;123.50;57.50
65556;PMS3003;52200;53.490;14.376;2023-12-07T02:57:34;161.60;117.20;56.00
65556;PMS3003;52200;53.490;14.376;2023-12-07T02:59:59;150.50;113.50;57.00
65556;PMS3003;52200;53.490;14.376;2023-12-07T03:02:25;161.50;126.50;61.00
65556;PMS3003;52200;53.490;14.376;2023-12-07T03:04:50;158.00;112.75;55.00
65556;PMS3003;52200;53.490;14.376;2023-12-07T03:07:16;170.75;120.00;59.00
65556;PMS3003;52200;53.490;14.376;2023-12-07T03:09:41;165.75;125.25;62.50
65556;PMS3003;52200;53.490;14.376;2023-12-07T03:12:07;174.00;116.50;56.00
65556;PMS3003;52200;53.490;14.376;2023-12-07T03:14:32;166.25;114.25;60.00
65556;PMS3003;52200;53.490;14.376;2023-12-07T03:16:58;142.50;107.00;55.50
65556;PMS3003;52200;53.490;14.376;2023-12-07T03:19:23;150.00;108.50;54.50
65556;PMS3003;52200;53.490;14.376;2023-12-07T03:21:49;171.00;121.75;55.25
65556;PMS3003;52200;53.490;14.376;2023-12-07T03:24:14;157.00;116.50;57.75
65556;PMS3003;52200;53.490;14.376;2023-12-07T03:26:40;172.75;123.50;56.00
65556;PMS3003;52200;53.490;14.376;2023-12-07T03:29:05;165.00;115.00;54.75
65556;PMS3003;52200;53.490;14.376;2023-12-07T03:31:31;155.50;114.00;54.25
65556;PMS3003;52200;53.490;14.376;2023-12-07T03:33:56;164.75;118.75;58.00
65556;PMS3003;52200;53.490;14.376;2023-12-07T03:36:22;152.75;109.50;53.00
65556;PMS3003;52200;53.490;14.376;2023-12-07T03:38:48;172.80;116.80;55.80
65556;PMS3003;52200;53.490;14.376;2023-12-07T03:41:14;152.40;111.40;55.00
65556;PMS3003;52200;53.490;14.376;2023-12-07T03:43:40;168.60;116.80;56.40
65556;PMS3003;52200;53.490;14.376;2023-12-07T03:46:05;169.50;124.50;59.75
65556;PMS3003;52200;53.490;14.376;2023-12-07T03:48:32;149.00;114.60;56.40
65556;PMS3003;52200;53.490;14.376;2023-12-07T03:50:58;166.00;120.60;56.20
65556;PMS3003;52200;53.490;14.376;2023-12-07T03:53:23;159.00;122.25;58.00
65556;PMS3003;52200;53.490;14.376;2023-12-07T03:55:49;167.75;126.75;58.25
65556;PMS3003;52200;53.490;14.376;2023-12-07T03:58:14;178.00;115.25;57.00
65556;PMS3003;52200;53.490;14.376;2023-12-07T04:00:39;170.00;117.75;55.00
65556;PMS3003;52200;53.490;14.376;2023-12-07T04:03:05;170.00;118.00;57.00
65556;PMS3003;52200;53.490;14.376;2023-12-07T04:05:31;159.75;115.25;55.00
65556;PMS3003;52200;53.490;14.376;2023-12-07T04:07:56;166.80;118.00;55.40
65556;PMS3003;52200;53.490;14.376;2023-12-07T04:10:22;165.50;123.75;57.50
65556;PMS3003;52200;53.490;14.376;2023-12-07T04:12:47;157.00;118.50;56.50
65556;PMS3003;52200;53.490;14.376;2023-12-07T04:15:13;169.25;117.75;58.25
65556;PMS3003;52200;53.490;14.376;2023-12-07T04:17:38;164.75;124.25;58.25
65556;PMS3003;52200;53.490;14.376;2023-12-07T04:20:04;171.00;117.75;54.75
65556;PMS3003;52200;53.490;14.376;2023-12-07T04:22:30;163.20;125.80;53.60
65556;PMS3003;52200;53.490;14.376;2023-12-07T04:24:55;170.25;116.25;54.00
65556;PMS3003;52200;53.490;14.376;2023-12-07T04:27:20;159.50;115.25;57.00
65556;PMS3003;52200;53.490;14.376;2023-12-07T04:29:46;171.00;118.00;56.25
65556;PMS3003;52200;53.490;14.376;2023-12-07T04:32:11;161.00;124.50;56.00
65556;PMS3003;52200;53.490;14.376;2023-12-07T04:34:36;170.50;118.50;59.00
65556;PMS3003;52200;53.490;14.376;2023-12-07T04:37:02;162.80;116.80;59.60
65556;PMS3003;52200;53.490;14.376;2023-12-07T04:39:28;168.00;125.75;60.25
65556;PMS3003;52200;53.490;14.376;2023-12-07T04:41:53;176.00;123.25;58.50
65556;PMS3003;52200;53.490;14.376;2023-12-07T04:44:19;164.25;121.75;57.50
65556;PMS3003;52200;53.490;14.376;2023-12-07T04:46:44;148.00;115.50;57.00
65556;PMS3003;52200;53.490;14.376;2023-12-07T04:49:09;147.75;116.00;56.50
65556;PMS3003;52200;53.490;14.376;2023-12-07T04:51:35;175.75;117.25;58.00
65556;PMS3003;52200;53.490;14.376;2023-12-07T04:54:00;172.50;118.25;54.25
65556;PMS3003;52200;53.490;14.376;2023-12-07T04:56:26;161.75;120.25;56.00
65556;PMS3003;52200;53.490;14.376;2023-12-07T04:58:51;178.25;125.75;61.00
65556;PMS3003;52200;53.490;14.376;2023-12-07T05:01:16;161.00;113.75;56.00
65556;PMS3003;52200;53.490;14.376;2023-12-07T05:03:43;163.20;122.80;59.80
65556;PMS3003;52200;53.490;14.376;2023-12-07T05:06:09;143.25;111.25;53.50
65556;PMS3003;52200;53.490;14.376;2023-12-07T05:08:35;160.25;120.25;59.00
65556;PMS3003;52200;53.490;14.376;2023-12-07T05:11:00;155.75;116.25;58.25
65556;PMS3003;52200;53.490;14.376;2023-12-07T05:13:26;160.25;117.25;55.25
65556;PMS3003;52200;53.490;14.376;2023-12-07T05:15:51;160.75;115.25;57.50
65556;PMS3003;52200;53.490;14.376;2023-12-07T05:18:16;157.75;115.00;56.75
65556;PMS3003;52200;53.490;14.376;2023-12-07T05:20:42;155.25;118.00;57.75
65556;PMS3003;52200;53.490;14.376;2023-12-07T05:23:08;155.00;124.80;58.80
65556;PMS3003;52200;53.490;14.376;2023-12-07T05:25:33;172.75;123.50;56.50
65556;PMS3003;52200;53.490;14.376;2023-12-07T05:27:59;159.75;122.75;55.75
65556;PMS3003;52200;53.490;14.376;2023-12-07T05:30:24;171.50;123.75;56.50
65556;PMS3003;52200;53.490;14.376;2023-12-07T05:32:49;154.50;111.75;56.50
65556;PMS3003;52200;53.490;14.376;2023-12-07T05:35:15;167.00;122.75;57.75
65556;PMS3003;52200;53.490;14.376;2023-12-07T05:37:41;173.50;125.75;57.50
65556;PMS3003;52200;53.490;14.376;2023-12-07T05:40:06;153.00;121.00;58.50
65556;PMS3003;52200;53.490;14.376;2023-12-07T05:42:33;157.20;125.40;59.00
65556;PMS3003;52200;53.490;14.376;2023-12-07T05:44:58;165.75;124.75;61.50
65556;PMS3003;52200;53.490;14.376;2023-12-07T05:47:24;162.00;121.00;60.20
65556;PMS3003;52200;53.490;14.376;2023-12-07T05:49:49;186.00;128.25;59.75
65556;PMS3003;52200;53.490;14.376;2023-12-07T05:52:15;178.75;127.00;61.50
65556;PMS3003;52200;53.490;14.376;2023-12-07T05:54:40;182.75;131.75;59.00
65556;PMS3003;52200;53.490;14.376;2023-12-07T05:57:11;180.00;133.00;61.00
65556;PMS3003;52200;53.490;14.376;2023-12-07T05:59:38;165.40;127.00;57.40
65556;PMS3003;52200;53.490;14.376;2023-12-07T06:02:03;160.80;125.40;61.40
65556;PMS3003;52200;53.490;14.376;2023-12-07T06:04:29;166.00;127.50;60.00
65556;PMS3003;52200;53.490;14.376;2023-12-07T06:06:55;174.00;128.25;59.00
65556;PMS3003;52200;53.490;14.376;2023-12-07T06:09:20;164.25;120.25;59.00
65556;PMS3003;52200;53.490;14.376;2023-12-07T06:11:46;173.25;129.25;58.75
65556;PMS3003;52200;53.490;14.376;2023-12-07T06:14:11;195.50;132.25;63.75
65556;PMS3003;52200;53.490;14.376;2023-12-07T06:16:36;174.00;132.75;61.00
65556;PMS3003;52200;53.490;14.376;2023-12-07T06:19:02;172.50;121.50;62.75
65556;PMS3003;52200;53.490;14.376;2023-12-07T06:21:28;161.60;120.60;59.80
65556;PMS3003;52200;53.490;14.376;2023-12-07T06:23:55;177.40;127.00;62.20
65556;PMS3003;52200;53.490;14.376;2023-12-07T06:26:20;165.75;121.00;57.00
65556;PMS3003;52200;53.490;14.376;2023-12-07T06:28:45;163.50;129.25;60.50
65556;PMS3003;52200;53.490;14.376;2023-12-07T06:31:11;161.00;124.00;58.00
65556;PMS3003;52200;53.490;14.376;2023-12-07T06:33:37;171.40;123.80;56.80
65556;PMS3003;52200;53.490;14.376;2023-12-07T06:36:02;163.25;124.50;61.00
65556;PMS3003;52200;53.490;14.376;2023-12-07T06:38:28;151.20;119.80;58.60
65556;PMS3003;52200;53.490;14.376;2023-12-07T06:40:54;164.50;124.50;59.00
65556;PMS3003;52200;53.490;14.376;2023-12-07T06:43:19;169.25;117.00;57.00
65556;PMS3003;52200;53.490;14.376;2023-12-07T06:45:44;154.25;115.50;56.00
65556;PMS3003;52200;53.490;14.376;2023-12-07T06:48:10;152.25;123.00;57.00
65556;PMS3003;52200;53.490;14.376;2023-12-07T06:50:36;173.80;120.60;57.80
65556;PMS3003;52200;53.490;14.376;2023-12-07T06:53:02;163.50;120.25;56.75
65556;PMS3003;52200;53.490;14.376;2023-12-07T06:55:27;176.00;119.75;57.25
65556;PMS3003;52200;53.490;14.376;2023-12-07T06:57:53;163.75;124.00;57.75
65556;PMS3003;52200;53.490;14.376;2023-12-07T07:00:18;154.00;120.75;58.50
65556;PMS3003;52200;53.490;14.376;2023-12-07T07:02:45;159.80;121.00;54.60
65556;PMS3003;52200;53.490;14.376;2023-12-07T07:05:10;170.25;121.50;58.50
65556;PMS3003;52200;53.490;14.376;2023-12-07T07:07:36;166.25;123.75;59.00
65556;PMS3003;52200;53.490;14.376;2023-12-07T07:10:02;152.50;113.00;58.25
65556;PMS3003;52200;53.490;14.376;2023-12-07T07:12:27;175.00;117.75;56.50
65556;PMS3003;52200;53.490;14.376;2023-12-07T07:14:54;163.20;119.60;56.40
65556;PMS3003;52200;53.490;14.376;2023-12-07T07:17:20;161.00;119.50;58.75
65556;PMS3003;52200;53.490;14.376;2023-12-07T07:19:46;156.20;115.00;56.40
65556;PMS3003;52200;53.490;14.376;2023-12-07T07:22:11;173.50;120.75;59.25
65556;PMS3003;52200;53.490;14.376;2023-12-07T07:24:36;163.25;118.75;56.50
65556;PMS3003;52200;53.490;14.376;2023-12-07T07:27:02;168.50;126.75;58.75
65556;PMS3003;52200;53.490;14.376;2023-12-07T07:29:28;165.50;121.00;60.75
65556;PMS3003;52200;53.490;14.376;2023-12-07T07:31:53;156.00;119.25;58.25
65556;PMS3003;52200;53.490;14.376;2023-12-07T07:34:19;166.75;125.50;60.00
65556;PMS3003;52200;53.490;14.376;2023-12-07T07:36:44;164.00;119.00;56.75
65556;PMS3003;52200;53.490;14.376;2023-12-07T07:39:10;163.50;124.00;60.50
65556;PMS3003;52200;53.490;14.376;2023-12-07T07:41:38;157.40;123.00;58.20
65556;PMS3003;52200;53.490;14.376;2023-12-07T07:44:04;162.00;126.00;58.00
65556;PMS3003;52200;53.490;14.376;2023-12-07T07:46:29;166.00;123.75;57.50
65556;PMS3003;52200;53.490;14.376;2023-12-07T07:48:55;162.00;129.25;59.25
65556;PMS3003;52200;53.490;14.376;2023-12-07T07:51:20;167.25;119.75;55.50
65556;PMS3003;52200;53.490;14.376;2023-12-07T07:53:45;164.00;123.25;59.50
65556;PMS3003;52200;53.490;14.376;2023-12-07T07:56:11;156.00;127.25;59.50
65556;PMS3003;52200;53.490;14.376;2023-12-07T07:58:36;151.50;115.25;58.25
65556;PMS3003;52200;53.490;14.376;2023-12-07T08:01:02;179.00;128.25;59.50
65556;PMS3003;52200;53.490;14.376;2023-12-07T08:03:28;176.00;130.20;57.80
65556;PMS3003;52200;53.490;14.376;2023-12-07T08:05:53;160.00;121.00;62.75
65556;PMS3003;52200;53.490;14.376;2023-12-07T08:08:19;171.75;125.00;59.25
65556;PMS3003;52200;53.490;14.376;2023-12-07T08:10:45;171.25;122.00;61.50
65556;PMS3003;52200;53.490;14.376;2023-12-07T08:13:10;155.75;123.25;58.75
65556;PMS3003;52200;53.490;14.376;2023-12-07T08:15:35;169.25;125.00;61.75
65556;PMS3003;52200;53.490;14.376;2023-12-07T08:18:01;172.00;123.50;62.00
65556;PMS3003;52200;53.490;14.376;2023-12-07T08:20:27;166.00;122.00;59.40
65556;PMS3003;52200;53.490;14.376;2023-12-07T08:22:52;165.75;128.00;60.25
65556;PMS3003;52200;53.490;14.376;2023-12-07T08:25:18;158.50;118.50;59.00
65556;PMS3003;52200;53.490;14.376;2023-12-07T08:27:43;172.25;127.25;61.00
65556;PMS3003;52200;53.490;14.376;2023-12-07T08:30:12;165.00;129.80;61.60
65556;PMS3003;52200;53.490;14.376;2023-12-07T08:32:38;158.00;127.25;61.50
65556;PMS3003;52200;53.490;14.376;2023-12-07T08:35:04;152.60;118.80;55.40
65556;PMS3003;52200;53.490;14.376;2023-12-07T08:37:31;156.40;121.00;60.20
65556;PMS3003;52200;53.490;14.376;2023-12-07T08:39:57;161.60;121.00;59.20
65556;PMS3003;52200;53.490;14.376;2023-12-07T08:42:23;183.25;128.50;60.00
65556;PMS3003;52200;53.490;14.376;2023-12-07T08:44:48;144.00;116.50;60.75
65556;PMS3003;52200;53.490;14.376;2023-12-07T08:47:13;148.50;116.00;57.00
65556;PMS3003;52200;53.490;14.376;2023-12-07T08:49:39;146.00;115.25;54.00
65556;PMS3003;52200;53.490;14.376;2023-12-07T08:52:04;166.75;122.25;60.25
65556;PMS3003;52200;53.490;14.376;2023-12-07T08:54:30;168.50;121.50;57.75
65556;PMS3003;52200;53.490;14.376;2023-12-07T08:56:55;158.00;121.00;58.25
65556;PMS3003;52200;53.490;14.376;2023-12-07T08:59:20;154.75;120.00;57.50
65556;PMS3003;52200;53.490;14.376;2023-12-07T09:01:46;149.00;122.00;58.25
65556;PMS3003;52200;53.490;14.376;2023-12-07T09:04:11;157.75;119.75;57.00
65556;PMS3003;52200;53.490;14.376;2023-12-07T09:06:37;157.50;117.00;56.50
65556;PMS3003;52200;53.490;14.376;2023-12-07T09:09:03;165.50;129.25;62.25
65556;PMS3003;52200;53.490;14.376;2023-12-07T09:11:29;158.00;120.80;59.80
65556;PMS3003;52200;53.490;14.376;2023-12-07T09:13:55;167.50;117.50;59.00
65556;PMS3003;52200;53.490;14.376;2023-12-07T09:16:20;147.50;116.00;58.00
65556;PMS3003;52200;53.490;14.376;2023-12-07T09:18:46;147.00;119.00;56.75
65556;PMS3003;52200;53.490;14.376;2023-12-07T09:21:12;152.50;123.75;58.50
65556;PMS3003;52200;53.490;14.376;2023-12-07T09:23:37;139.25;116.00;55.75
65556;PMS3003;52200;53.490;14.376;2023-12-07T09:26:03;159.75;117.50;54.25
65556;PMS3003;52200;53.490;14.376;2023-12-07T09:28:29;143.40;117.60;59.20
65556;PMS3003;52200;53.490;14.376;2023-12-07T09:30:54;151.50;120.75;58.25
65556;PMS3003;52200;53.490;14.376;2023-12-07T09:33:19;145.75;116.75;60.50
65556;PMS3003;52200;53.490;14.376;2023-12-07T09:35:45;147.25;118.75;56.75
65556;PMS3003;52200;53.490;14.376;2023-12-07T09:38:10;152.75;119.25;58.25
65556;PMS3003;52200;53.490;14.376;2023-12-07T09:40:36;154.75;114.50;56.75
65556;PMS3003;52200;53.490;14.376;2023-12-07T09:43:01;148.00;117.25;59.00
65556;PMS3003;52200;53.490;14.376;2023-12-07T09:45:26;144.25;111.25;56.25
65556;PMS3003;52200;53.490;14.376;2023-12-07T09:47:52;146.75;107.75;56.00
65556;PMS3003;52200;53.490;14.376;2023-12-07T09:50:20;152.40;116.00;54.80
65556;PMS3003;52200;53.490;14.376;2023-12-07T09:52:53;145.20;118.20;58.00
65556;PMS3003;52200;53.490;14.376;2023-12-07T09:55:21;135.80;108.60;55.20
65556;PMS3003;52200;53.490;14.376;2023-12-07T09:57:47;136.40;111.00;53.80
65556;PMS3003;52200;53.490;14.376;2023-12-07T10:00:14;139.00;107.60;54.60
65556;PMS3003;52200;53.490;14.376;2023-12-07T10:02:40;137.60;104.00;55.40
65556;PMS3003;52200;53.490;14.376;2023-12-07T10:05:08;131.00;103.00;52.80
65556;PMS3003;52200;53.490;14.376;2023-12-07T10:07:35;142.40;106.40;54.40
65556;PMS3003;52200;53.490;14.376;2023-12-07T10:10:03;125.00;104.20;49.80
65556;PMS3003;52200;53.490;14.376;2023-12-07T10:12:29;128.60;102.20;51.00
65556;PMS3003;52200;53.490;14.376;2023-12-07T10:14:55;125.40;105.40;51.00
65556;PMS3003;52200;53.490;14.376;2023-12-07T10:17:21;119.25;98.00;50.50
65556;PMS3003;52200;53.490;14.376;2023-12-07T10:19:46;115.00;96.25;49.75
65556;PMS3003;52200;53.490;14.376;2023-12-07T10:22:33;121.40;97.60;49.80
65556;PMS3003;52200;53.490;14.376;2023-12-07T10:24:58;120.25;99.75;48.75
65556;PMS3003;52200;53.490;14.376;2023-12-07T10:27:24;119.75;100.75;49.00
65556;PMS3003;52200;53.490;14.376;2023-12-07T10:29:50;125.80;97.60;48.60
65556;PMS3003;52200;53.490;14.376;2023-12-07T10:32:15;122.00;92.33;47.67
65556;PMS3003;52200;53.490;14.376;2023-12-07T10:34:41;112.67;94.67;51.00
65556;PMS3003;52200;53.490;14.376;2023-12-07T10:37:06;119.00;98.00;48.00
65556;PMS3003;52200;53.490;14.376;2023-12-07T10:39:32;114.00;94.67;49.00
65556;PMS3003;52200;53.490;14.376;2023-12-07T10:41:58;120.00;92.33;48.00
65556;PMS3003;52200;53.490;14.376;2023-12-07T10:44:26;110.00;86.00;46.75
65556;PMS3003;52200;53.490;14.376;2023-12-07T10:46:54;115.80;95.60;47.40
65556;PMS3003;52200;53.490;14.376;2023-12-07T10:49:21;108.75;89.50;45.25
65556;PMS3003;52200;53.490;14.376;2023-12-07T10:51:54;107.75;84.00;45.75
65556;PMS3003;52200;53.490;14.376;2023-12-07T10:54:30;108.50;87.25;46.25
65556;PMS3003;52200;53.490;14.376;2023-12-07T10:57:06;108.25;84.50;45.75
65556;PMS3003;52200;53.490;14.376;2023-12-07T10:59:33;108.50;86.25;44.25
65556;PMS3003;52200;53.490;14.376;2023-12-07T11:02:02;108.50;83.25;45.00
65556;PMS3003;52200;53.490;14.376;2023-12-07T11:04:28;109.75;85.75;46.25
65556;PMS3003;52200;53.490;14.376;2023-12-07T11:06:56;107.00;86.00;46.00
65556;PMS3003;52200;53.490;14.376;2023-12-07T11:09:30;106.00;79.25;44.25
65556;PMS3003;52200;53.490;14.376;2023-12-07T11:12:43;107.25;84.75;45.25
65556;PMS3003;52200;53.490;14.376;2023-12-07T11:15:11;109.25;85.50;45.00
65556;PMS3003;52200;53.490;14.376;2023-12-07T11:17:54;106.75;82.75;44.75
65556;PMS3003;52200;53.490;14.376;2023-12-07T11:20:21;110.00;88.75;46.25
65556;PMS3003;52200;53.490;14.376;2023-12-07T11:23:07;104.75;83.50;45.00
65556;PMS3003;52200;53.490;14.376;2023-12-07T11:25:33;117.25;94.75;46.75
65556;PMS3003;52200;53.490;14.376;2023-12-07T11:28:02;113.00;90.67;46.33
65556;PMS3003;52200;53.490;14.376;2023-12-07T11:30:35;116.25;92.25;44.25
65556;PMS3003;52200;53.490;14.376;2023-12-07T11:33:04;110.25;87.00;45.75
65556;PMS3003;52200;53.490;14.376;2023-12-07T11:35:30;112.50;86.50;45.50
65556;PMS3003;52200;53.490;14.376;2023-12-07T11:38:00;105.00;84.00;45.50
65556;PMS3003;52200;53.490;14.376;2023-12-07T11:40:36;104.00;88.25;45.75
65556;PMS3003;52200;53.490;14.376;2023-12-07T11:43:05;110.00;87.00;45.25
65556;PMS3003;52200;53.490;14.376;2023-12-07T11:45:41;110.00;87.75;45.75
65556;PMS3003;52200;53.490;14.376;2023-12-07T11:48:11;109.50;90.50;46.00
65556;PMS3003;52200;53.490;14.376;2023-12-07T11:50:53;110.00;89.50;45.75
65556;PMS3003;52200;53.490;14.376;2023-12-07T11:53:25;105.25;86.25;45.75
65556;PMS3003;52200;53.490;14.376;2023-12-07T11:55:55;100.00;82.50;44.50
65556;PMS3003;52200;53.490;14.376;2023-12-07T11:58:22;105.00;83.25;42.75
65556;PMS3003;52200;53.490;14.376;2023-12-07T12:00:47;103.67;80.67;45.00
65556;PMS3003;52200;53.490;14.376;2023-12-07T12:03:13;108.33;83.00;44.00
65556;PMS3003;52200;53.490;14.376;2023-12-07T12:05:39;110.00;80.00;43.75
65556;PMS3003;52200;53.490;14.376;2023-12-07T12:08:05;106.00;81.25;45.50
65556;PMS3003;52200;53.490;14.376;2023-12-07T12:10:31;101.00;77.50;43.00
65556;PMS3003;52200;53.490;14.376;2023-12-07T12:12:57;99.33;80.00;42.00
65556;PMS3003;52200;53.490;14.376;2023-12-07T12:15:25;100.25;77.25;43.00
65556;PMS3003;52200;53.490;14.376;2023-12-07T12:17:51;103.00;77.67;43.67
65556;PMS3003;52200;53.490;14.376;2023-12-07T12:20:16;105.00;81.67;45.67
65556;PMS3003;52200;53.490;14.376;2023-12-07T12:22:42;98.00;74.33;42.00
65556;PMS3003;52200;53.490;14.376;2023-12-07T12:25:08;100.50;75.50;43.25
65556;PMS3003;52200;53.490;14.376;2023-12-07T12:27:34;104.33;78.33;43.00
65556;PMS3003;52200;53.490;14.376;2023-12-07T12:30:00;100.00;77.25;42.25
65556;PMS3003;52200;53.490;14.376;2023-12-07T12:32:27;106.50;77.25;42.00
65556;PMS3003;52200;53.490;14.376;2023-12-07T12:34:52;103.00;79.67;42.67
65556;PMS3003;52200;53.490;14.376;2023-12-07T12:37:18;103.00;80.00;43.25
65556;PMS3003;52200;53.490;14.376;2023-12-07T12:39:43;107.00;79.33;43.33
65556;PMS3003;52200;53.490;14.376;2023-12-07T12:42:09;107.00;86.00;45.00
65556;PMS3003;52200;53.490;14.376;2023-12-07T12:44:36;104.75;79.50;43.50
65556;PMS3003;52200;53.490;14.376;2023-12-07T12:47:06;101.75;75.50;43.00
65556;PMS3003;52200;53.490;14.376;2023-12-07T12:49:36;104.00;76.50;43.25
65556;PMS3003;52200;53.490;14.376;2023-12-07T12:52:03;106.50;80.25;43.50
65556;PMS3003;52200;53.490;14.376;2023-12-07T12:54:32;101.50;78.00;44.50
65556;PMS3003;52200;53.490;14.376;2023-12-07T12:56:58;103.75;76.75;42.75
65556;PMS3003;52200;53.490;14.376;2023-12-07T12:59:24;104.67;81.67;44.33
65556;PMS3003;52200;53.490;14.376;2023-12-07T13:01:50;96.75;75.00;42.25
65556;PMS3003;52200;53.490;14.376;2023-12-07T13:04:16;106.00;80.25;44.25
65556;PMS3003;52200;53.490;14.376;2023-12-07T13:06:41;103.00;76.00;42.00
65556;PMS3003;52200;53.490;14.376;2023-12-07T13:09:06;100.00;77.00;42.00
65556;PMS3003;52200;53.490;14.376;2023-12-07T13:11:32;103.33;77.67;43.67
65556;PMS3003;52200;53.490;14.376;2023-12-07T13:13:58;103.33;75.33;42.67